Time;durP1;ratioP1;P1;durP2;ratioP2;P2;SDS_P1;SDS_P2;PMS_P1;PMS_P2;Temp;Humidity;BMP_temperature;BMP_pressure;BME280_temperature;BME280_humidity;BME280_pressure;Samples;Min_cycle;Max_cycle;Signal;HPM_P1;HPM_P2
2023/04/18 00:00:41;;;;;;;22.83;12.90;;;;;;;8.35;90.88;102609.72;4954637;28;20108;-87
2023/04/18 00:03:08;;;;;;;24.15;13.57;;;;;;;8.39;91.00;102607.22;4964828;28;20037;-88
2023/04/18 00:05:35;;;;;;;23.08;12.27;;;;;;;8.40;90.41;102606.34;4972143;28;20142;-88
2023/04/18 00:08:01;;;;;;;24.80;13.70;;;;;;;8.42;89.06;102604.66;4973165;28;20029;-85
2023/04/18 00:10:26;;;;;;;26.90;13.13;;;;;;;8.43;88.81;102601.22;4971883;28;20031;-85
2023/04/18 00:12:51;;;;;;;22.40;12.20;;;;;;;8.43;87.80;102593.47;4957991;28;20105;-86
2023/04/18 00:15:17;;;;;;;20.52;12.15;;;;;;;8.44;85.97;102608.13;4962128;28;20125;-86
2023/04/18 00:17:42;;;;;;;22.30;12.57;;;;;;;8.43;84.32;102601.22;4953117;28;20387;-85
2023/04/18 00:20:11;;;;;;;21.40;12.30;;;;;;;8.42;84.83;102601.19;4953354;28;20401;-86
2023/04/18 00:22:41;;;;;;;19.20;11.60;;;;;;;8.41;82.78;102591.72;4955494;28;20035;-86
2023/04/18 00:25:07;;;;;;;20.25;12.00;;;;;;;8.38;81.89;102597.72;4964499;28;20037;-86
2023/04/18 00:27:33;;;;;;;22.92;12.48;;;;;;;8.37;82.37;102601.16;4962497;28;20400;-86
2023/04/18 00:29:58;;;;;;;21.08;12.13;;;;;;;8.35;81.11;102604.56;4942293;29;20038;-86
2023/04/18 00:32:23;;;;;;;23.63;11.63;;;;;;;8.32;81.03;102602.81;4968535;28;20031;-86
2023/04/18 00:34:48;;;;;;;22.73;11.60;;;;;;;8.30;80.49;102599.28;4949164;29;20295;-86
2023/04/18 00:37:14;;;;;;;21.90;11.50;;;;;;;8.27;79.48;102596.66;4967780;28;20290;-86
2023/04/18 00:39:39;;;;;;;23.05;12.40;;;;;;;8.24;79.19;102601.81;4972716;28;20113;-86
2023/04/18 00:42:05;;;;;;;20.25;12.35;;;;;;;8.23;78.65;102602.63;4956579;28;20377;-86
2023/04/18 00:44:31;;;;;;;20.70;11.77;;;;;;;8.19;78.52;102598.25;4959559;28;20380;-85
2023/04/18 00:46:56;;;;;;;21.70;11.68;;;;;;;8.16;79.15;102600.81;4965288;28;20035;-86
2023/04/18 00:49:22;;;;;;;23.23;11.13;;;;;;;8.13;78.31;102598.16;4967149;28;20035;-86
2023/04/18 00:51:48;;;;;;;19.20;11.65;;;;;;;8.08;78.97;102592.94;4952859;28;20026;-86
2023/04/18 00:54:17;;;;;;;20.05;11.13;;;;;;;8.05;80.10;102592.06;4971290;28;20105;-86
2023/04/18 00:56:44;;;;;;;22.08;11.43;;;;;;;8.00;78.43;102599.72;4952784;28;20093;-86
2023/04/18 00:59:10;;;;;;;22.33;11.55;;;;;;;7.97;78.40;102603.97;4948738;28;20059;-86
2023/04/18 01:01:36;;;;;;;19.70;11.13;;;;;;;7.94;78.15;102604.78;4959613;28;20038;-86
2023/04/18 01:04:01;;;;;;;21.52;11.25;;;;;;;7.90;79.49;102597.84;4952770;28;20037;-87
2023/04/18 01:06:28;;;;;;;19.60;11.48;;;;;;;7.84;80.86;102603.78;4970823;28;20046;-87
2023/04/18 01:08:54;;;;;;;23.10;11.73;;;;;;;7.78;81.02;102598.50;4971125;28;20030;-86
2023/04/18 01:11:20;;;;;;;22.00;11.50;;;;;;;7.73;81.47;102599.28;4951280;28;20023;-86
2023/04/18 01:14:02;;;;;;;18.77;11.43;;;;;;;7.63;82.37;102593.13;4967699;28;20034;-87
2023/04/18 01:16:28;;;;;;;25.50;12.77;;;;;;;7.63;82.77;102598.28;4962178;28;20101;-87
2023/04/18 01:18:55;;;;;;;20.63;11.63;;;;;;;7.58;82.98;102594.72;4952221;28;20029;-85
2023/04/18 01:21:20;;;;;;;21.80;11.77;;;;;;;7.56;84.34;102600.72;4969976;28;20041;-86
2023/04/18 01:23:50;;;;;;;23.77;12.65;;;;;;;7.52;82.86;102595.50;4942743;28;20034;-86
2023/04/18 01:26:15;;;;;;;21.10;12.40;;;;;;;7.48;82.94;102593.72;4970893;28;20046;-86
2023/04/18 01:28:41;;;;;;;22.95;13.13;;;;;;;7.47;82.79;102591.13;4967050;28;20038;-86
2023/04/18 01:31:06;;;;;;;20.55;12.32;;;;;;;7.42;82.12;102591.03;4969453;28;20037;-86
2023/04/18 01:33:31;;;;;;;19.98;12.18;;;;;;;7.41;82.07;102591.88;4944839;28;20034;-86
2023/04/18 01:35:57;;;;;;;20.45;12.00;;;;;;;7.34;81.96;102582.31;4966161;28;20067;-86
2023/04/18 01:38:22;;;;;;;22.45;12.35;;;;;;;7.34;82.96;102582.31;4940936;28;20117;-86
2023/04/18 01:40:47;;;;;;;20.13;12.85;;;;;;;7.29;83.21;102575.31;4971274;28;20037;-86
2023/04/18 01:43:13;;;;;;;22.90;12.20;;;;;;;7.20;81.84;102577.72;4969614;28;20022;-86
2023/04/18 01:45:38;;;;;;;21.60;12.40;;;;;;;7.20;83.53;102578.59;4948509;28;20066;-87
2023/04/18 01:48:04;;;;;;;20.83;12.52;;;;;;;7.17;82.83;102581.13;4970620;28;20106;-86
2023/04/18 01:50:29;;;;;;;21.00;12.25;;;;;;;7.12;81.78;102572.44;4970523;28;20027;-86
2023/04/18 01:52:55;;;;;;;20.52;12.27;;;;;;;7.09;81.91;102580.13;4970835;28;20089;-86
2023/04/18 01:55:20;;;;;;;20.20;12.25;;;;;;;7.05;82.57;102581.75;4969425;28;20038;-86
2023/04/18 01:57:45;;;;;;;19.77;12.20;;;;;;;7.01;82.92;102572.25;4961576;28;20031;-86
2023/04/18 02:00:11;;;;;;;21.65;12.30;;;;;;;6.99;83.61;102579.06;4968012;28;20400;-86
2023/04/18 02:02:37;;;;;;;20.17;12.20;;;;;;;6.93;82.45;102575.50;4965272;28;20419;-86
2023/04/18 02:05:02;;;;;;;22.77;12.40;;;;;;;6.90;82.50;102570.28;4970143;28;20050;-86
2023/04/18 02:07:27;;;;;;;20.85;12.43;;;;;;;6.85;82.82;102577.06;4970617;28;20463;-86
2023/04/18 02:09:53;;;;;;;24.00;12.55;;;;;;;6.81;82.53;102570.13;4955623;28;20034;-86
2023/04/18 02:12:18;;;;;;;19.92;12.20;;;;;;;6.80;83.32;102568.38;4967861;28;20387;-86
2023/04/18 02:14:43;;;;;;;22.48;12.60;;;;;;;6.78;83.08;102570.06;4971606;28;20034;-86
2023/04/18 02:17:08;;;;;;;24.20;13.57;;;;;;;6.75;82.24;102576.03;4975113;28;20078;-87
2023/04/18 02:19:34;;;;;;;21.67;11.90;;;;;;;6.71;83.78;102577.66;4974315;28;20062;-86
2023/04/18 02:21:59;;;;;;;21.52;12.32;;;;;;;6.65;83.98;102571.53;4973383;28;20285;-86
2023/04/18 02:24:25;;;;;;;23.00;12.63;;;;;;;6.59;83.48;102564.56;4974425;28;20162;-86
2023/04/18 02:26:50;;;;;;;21.83;12.27;;;;;;;6.58;83.73;102561.94;4974099;28;20376;-86
2023/04/18 02:29:16;;;;;;;20.80;12.15;;;;;;;6.55;83.95;102560.16;4972927;28;20034;-87
2023/04/18 02:31:41;;;;;;;21.52;12.32;;;;;;;6.52;84.22;102569.53;4974318;28;20050;-86
2023/04/18 02:34:07;;;;;;;25.07;12.60;;;;;;;6.46;83.49;102561.69;4973763;28;20388;-86
2023/04/18 02:36:32;;;;;;;23.95;13.07;;;;;;;6.44;84.39;102564.22;4949212;28;20378;-86
2023/04/18 02:38:58;;;;;;;21.02;12.38;;;;;;;6.40;84.14;102570.16;4963068;28;20106;-86
2023/04/18 02:41:24;;;;;;;23.70;12.70;;;;;;;6.32;84.53;102569.13;4968786;28;20042;-86
2023/04/18 02:43:49;;;;;;;22.45;12.88;;;;;;;6.28;84.33;102573.31;4968320;28;20032;-87
2023/04/18 02:46:15;;;;;;;22.10;12.65;;;;;;;6.23;84.16;102564.63;4974545;28;20030;-86
2023/04/18 02:48:40;;;;;;;19.52;12.15;;;;;;;6.21;84.48;102565.47;4956163;28;20510;-86
2023/04/18 02:51:07;;;;;;;20.63;12.40;;;;;;;6.18;84.69;102568.81;4956374;28;20495;-86
2023/04/18 02:53:32;;;;;;;21.98;12.48;;;;;;;6.16;85.06;102569.63;4973349;28;20046;-86
2023/04/18 02:55:58;;;;;;;20.23;12.18;;;;;;;6.11;85.24;102569.53;4971027;28;20027;-86
2023/04/18 02:58:23;;;;;;;25.30;12.00;;;;;;;6.08;84.77;102571.16;4963155;28;20092;-86
2023/04/18 03:00:51;;;;;;;25.10;12.63;;;;;;;6.03;85.01;102578.78;4952532;28;20191;-86
2023/04/18 03:03:17;;;;;;;22.98;13.00;;;;;;;6.00;84.65;102568.44;4964940;28;20035;-86
2023/04/18 03:05:42;;;;;;;21.80;12.15;;;;;;;5.93;84.44;102567.41;4969529;28;20165;-86
2023/04/18 03:08:07;;;;;;;22.13;12.87;;;;;;;5.90;84.79;102554.47;4973065;28;20027;-86
2023/04/18 03:10:36;;;;;;;21.77;12.48;;;;;;;5.90;85.43;102558.75;4971808;28;20286;-86
2023/04/18 03:13:01;;;;;;;22.00;12.25;;;;;;;5.88;84.28;102568.13;4961130;28;20573;-86
2023/04/18 03:15:27;;;;;;;23.30;13.02;;;;;;;5.87;84.48;102571.50;4954666;28;20054;-86
2023/04/18 03:17:52;;;;;;;20.73;12.57;;;;;;;5.82;84.99;102565.38;4973014;28;20049;-86
2023/04/18 03:20:17;;;;;;;23.75;13.68;;;;;;;5.78;84.71;102563.56;4972296;28;20054;-86
2023/04/18 03:22:43;;;;;;;21.63;11.95;;;;;;;5.78;84.63;102572.16;4972365;28;20054;-86
2023/04/18 03:25:09;;;;;;;23.30;12.65;;;;;;;5.78;85.21;102567.03;4959944;28;20055;-86
2023/04/18 03:27:34;;;;;;;22.00;12.52;;;;;;;5.75;84.45;102571.22;4951668;28;20034;-86
2023/04/18 03:30:00;;;;;;;22.55;12.75;;;;;;;5.75;86.11;102573.78;4972706;28;20024;-86
2023/04/18 03:32:25;;;;;;;21.73;12.73;;;;;;;5.73;84.72;102567.75;4971198;28;20402;-86
2023/04/18 03:34:51;;;;;;;24.02;12.52;;;;;;;5.66;86.13;102568.44;4970614;28;20039;-86
2023/04/18 03:37:16;;;;;;;21.70;12.45;;;;;;;5.61;85.96;102575.16;4956297;28;20399;-86
2023/04/18 03:39:41;;;;;;;20.25;12.13;;;;;;;5.61;86.81;102575.16;4972793;28;20054;-86
2023/04/18 03:42:07;;;;;;;19.90;11.98;;;;;;;5.57;86.63;102569.06;4970571;28;20026;-86
2023/04/18 03:44:32;;;;;;;20.63;12.38;;;;;;;5.56;86.45;102570.78;4965402;28;20488;-86
2023/04/18 03:46:57;;;;;;;20.42;12.32;;;;;;;5.53;86.09;102574.97;4947878;28;20574;-86
2023/04/18 03:49:23;;;;;;;21.35;11.63;;;;;;;5.48;85.97;102573.97;4972587;28;20026;-86
2023/04/18 03:51:48;;;;;;;22.10;12.38;;;;;;;5.47;86.71;102577.38;4954875;28;20031;-86
2023/04/18 03:54:14;;;;;;;19.95;12.13;;;;;;;5.44;86.10;102583.34;4967060;28;20030;-86
2023/04/18 03:56:40;;;;;;;20.52;11.70;;;;;;;5.39;86.47;102577.19;4969728;28;20506;-86
2023/04/18 03:59:05;;;;;;;21.55;12.13;;;;;;;5.39;87.44;102581.50;4972106;28;20607;-87
2023/04/18 04:01:31;;;;;;;19.08;11.95;;;;;;;5.38;86.96;102580.63;4964354;28;20106;-86
2023/04/18 04:03:56;;;;;;;21.17;12.40;;;;;;;5.37;86.83;102571.16;4961701;28;20033;-86
2023/04/18 04:06:22;;;;;;;21.95;12.90;;;;;;;5.37;85.95;102576.31;4961233;28;20130;-86
2023/04/18 04:08:47;;;;;;;23.27;13.00;;;;;;;5.38;86.61;102583.19;4963142;28;20038;-86
2023/04/18 04:11:12;;;;;;;20.52;12.25;;;;;;;5.36;86.26;102581.41;4963021;28;20031;-87
2023/04/18 04:13:37;;;;;;;20.00;12.20;;;;;;;5.31;86.77;102575.28;4966366;28;20062;-87
2023/04/18 04:16:04;;;;;;;22.10;12.02;;;;;;;5.26;86.95;102569.13;4969307;28;20428;-86
2023/04/18 04:18:30;;;;;;;21.13;13.15;;;;;;;5.26;86.75;102579.41;4969094;28;20049;-87
2023/04/18 04:20:58;;;;;;;19.52;11.85;;;;;;;5.27;87.43;102582.03;4969879;28;20023;-86
2023/04/18 04:23:24;;;;;;;20.85;11.68;;;;;;;5.23;87.08;102582.78;4952066;28;20027;-86
2023/04/18 04:25:51;;;;;;;21.92;11.77;;;;;;;5.26;87.21;102584.53;4950023;28;20055;-87
2023/04/18 04:28:18;;;;;;;20.58;11.55;;;;;;;5.24;87.75;102583.66;4965627;28;20037;-86
2023/04/18 04:30:43;;;;;;;20.77;12.43;;;;;;;5.22;87.91;102590.44;4971114;28;20035;-86
2023/04/18 04:33:08;;;;;;;19.77;11.63;;;;;;;5.21;87.03;102586.13;4972749;28;20400;-87
2023/04/18 04:35:35;;;;;;;22.63;12.05;;;;;;;5.18;87.07;102589.50;4964392;28;20504;-87
2023/04/18 04:38:00;;;;;;;24.35;12.05;;;;;;;5.15;87.76;102586.84;4950999;28;20038;-87
2023/04/18 04:40:26;;;;;;;23.13;12.05;;;;;;;5.13;87.96;102576.53;4969212;28;20037;-87
2023/04/18 04:42:55;;;;;;;16.85;11.00;;;;;;;5.17;87.46;102585.19;4969863;28;20546;-87
2023/04/18 04:45:21;;;;;;;22.50;11.82;;;;;;;5.13;88.08;102581.66;4970442;28;20093;-86
2023/04/18 04:47:46;;;;;;;21.00;11.40;;;;;;;5.13;88.00;102594.50;4954985;28;20209;-87
2023/04/18 04:50:14;;;;;;;19.85;11.82;;;;;;;5.14;87.99;102593.69;4965651;28;20031;-87
2023/04/18 04:52:41;;;;;;;21.58;11.73;;;;;;;5.12;87.40;102595.34;4968265;28;20051;-86
2023/04/18 04:55:06;;;;;;;21.42;11.68;;;;;;;5.12;87.62;102591.91;4971360;28;20399;-87
2023/04/18 04:57:32;;;;;;;22.77;12.65;;;;;;;5.09;87.22;102597.84;4967825;28;20498;-87
2023/04/18 04:59:57;;;;;;;21.63;11.90;;;;;;;5.10;87.69;102599.59;4964166;28;20062;-86
2023/04/18 05:02:22;;;;;;;21.85;11.95;;;;;;;5.11;87.65;102603.91;4957600;28;20065;-86
2023/04/18 05:04:48;;;;;;;21.58;11.07;;;;;;;5.07;86.68;102599.50;4967071;28;20031;-86
2023/04/18 05:07:14;;;;;;;19.50;11.27;;;;;;;5.09;87.43;102602.97;4966674;28;20405;-86
2023/04/18 05:09:39;;;;;;;21.38;11.60;;;;;;;5.12;87.64;102599.59;4950111;29;20077;-86
2023/04/18 05:12:04;;;;;;;22.15;11.60;;;;;;;5.08;87.40;102596.09;4946445;28;20054;-86
2023/04/18 05:14:30;;;;;;;21.75;13.20;;;;;;;5.14;86.76;102597.94;4970696;28;20094;-86
2023/04/18 05:16:55;;;;;;;21.40;13.25;;;;;;;5.14;86.86;102597.94;4970500;28;20499;-86
2023/04/18 05:19:20;;;;;;;18.13;11.27;;;;;;;5.19;86.79;102600.66;4967451;28;20049;-86
2023/04/18 05:21:46;;;;;;;25.27;12.45;;;;;;;5.22;87.23;102606.75;4950850;28;20073;-86
2023/04/18 05:24:11;;;;;;;21.70;11.70;;;;;;;5.26;87.07;102599.97;4966822;28;20110;-86
2023/04/18 05:26:37;;;;;;;23.42;11.77;;;;;;;5.34;86.91;102606.19;4953986;28;20073;-87
2023/04/18 05:29:02;;;;;;;18.48;10.85;;;;;;;5.34;86.35;102607.06;4969822;28;20038;-86
2023/04/18 05:31:27;;;;;;;22.00;11.45;;;;;;;5.37;87.21;102604.59;4965495;28;20392;-87
2023/04/18 05:33:53;;;;;;;23.65;11.45;;;;;;;5.39;86.61;102609.78;4969441;28;20069;-86
2023/04/18 05:36:19;;;;;;;23.02;12.18;;;;;;;5.46;86.75;102607.38;4960519;28;20384;-86
2023/04/18 05:38:44;;;;;;;20.00;11.25;;;;;;;5.57;86.86;102611.09;4962220;28;20086;-86
2023/04/18 05:41:09;;;;;;;22.65;11.60;;;;;;;5.63;86.43;102612.09;4952295;28;20416;-86
2023/04/18 05:43:35;;;;;;;20.70;12.50;;;;;;;5.66;85.70;102623.34;4970314;28;20031;-86
2023/04/18 05:46:00;;;;;;;19.40;11.38;;;;;;;5.71;87.11;102615.72;4953971;28;20282;-86
2023/04/18 05:48:26;;;;;;;20.75;10.98;;;;;;;5.78;87.54;102617.63;4964957;28;20031;-87
2023/04/18 05:50:51;;;;;;;19.85;10.95;;;;;;;5.83;86.67;102619.47;4970559;28;20674;-86
2023/04/18 05:53:16;;;;;;;19.35;12.35;;;;;;;5.87;86.48;102626.44;4970602;28;20030;-86
2023/04/18 05:55:42;;;;;;;21.77;11.73;;;;;;;5.90;86.29;102623.06;4942643;28;20115;-86
2023/04/18 05:58:07;;;;;;;21.13;11.40;;;;;;;5.97;87.25;102622.41;4971063;28;20031;-87
2023/04/18 06:00:33;;;;;;;23.77;12.90;;;;;;;6.08;86.33;102625.19;4970461;28;20066;-86
2023/04/18 06:02:58;;;;;;;18.95;11.43;;;;;;;6.19;85.47;102631.50;4963991;28;20072;-87
2023/04/18 06:05:23;;;;;;;21.83;11.93;;;;;;;6.28;85.70;102618.81;4969852;28;20035;-87
2023/04/18 06:07:49;;;;;;;19.02;10.98;;;;;;;6.39;85.54;102616.47;4951319;28;20416;-87
2023/04/18 06:10:15;;;;;;;20.00;11.55;;;;;;;6.48;85.96;102620.16;4969253;28;20026;-86
2023/04/18 06:12:40;;;;;;;22.45;11.40;;;;;;;6.60;86.24;102630.69;4946433;29;20031;-86
2023/04/18 06:15:06;;;;;;;21.48;11.75;;;;;;;6.69;85.38;102624.84;4964440;28;20034;-87
2023/04/18 06:17:33;;;;;;;21.77;11.45;;;;;;;6.84;85.25;102620.00;4968446;28;20027;-86
2023/04/18 06:19:59;;;;;;;19.92;11.70;;;;;;;6.94;83.32;102623.66;4943103;28;20114;-87
2023/04/18 06:22:24;;;;;;;24.73;12.15;;;;;;;7.00;83.49;102626.34;4969474;28;20026;-86
2023/04/18 06:24:49;;;;;;;19.70;10.75;;;;;;;7.17;84.32;102626.66;4960608;28;20031;-85
2023/04/18 06:27:15;;;;;;;20.60;11.10;;;;;;;7.44;83.64;102634.91;4959508;28;20033;-87
2023/04/18 06:29:42;;;;;;;23.80;11.50;;;;;;;7.62;82.44;102630.09;4961877;28;20154;-86
2023/04/18 06:32:07;;;;;;;18.95;10.93;;;;;;;7.69;81.90;102631.94;4965409;28;20287;-86
2023/04/18 06:34:32;;;;;;;17.98;10.50;;;;;;;7.70;80.69;102638.84;4961066;28;20253;-87
2023/04/18 06:36:58;;;;;;;18.63;10.60;;;;;;;7.68;81.34;102637.94;4947434;28;20027;-87
2023/04/18 06:39:23;;;;;;;18.85;10.80;;;;;;;7.71;81.41;102631.97;4960500;28;20057;-86
2023/04/18 06:41:49;;;;;;;20.75;11.35;;;;;;;7.78;81.69;102633.81;4944772;28;20035;-85
2023/04/18 06:44:14;;;;;;;19.02;11.45;;;;;;;7.82;81.52;102628.72;4962772;28;20062;-85
2023/04/18 06:46:40;;;;;;;18.60;10.93;;;;;;;7.84;81.81;102636.47;4969805;28;20058;-85
2023/04/18 06:49:05;;;;;;;19.75;10.32;;;;;;;7.81;80.19;102639.00;4969812;28;20062;-86
2023/04/18 06:51:31;;;;;;;22.65;10.98;;;;;;;7.76;82.03;102640.66;4956848;28;20054;-85
2023/04/18 06:53:56;;;;;;;19.05;10.30;;;;;;;7.68;81.45;102637.94;4969566;28;20034;-85
2023/04/18 06:56:22;;;;;;;20.30;11.18;;;;;;;7.61;81.63;102643.81;4960501;28;20432;-85
2023/04/18 06:58:48;;;;;;;18.20;10.65;;;;;;;7.59;82.57;102653.25;4963628;28;20042;-85
2023/04/18 07:01:13;;;;;;;18.58;10.70;;;;;;;7.55;82.88;102651.47;4956076;28;20153;-85
2023/04/18 07:03:39;;;;;;;19.35;10.40;;;;;;;7.51;83.16;102641.91;4971755;28;20402;-85
2023/04/18 07:06:04;;;;;;;18.58;10.63;;;;;;;7.53;83.07;102659.19;4970042;28;20101;-86
2023/04/18 07:08:30;;;;;;;18.67;10.77;;;;;;;7.52;82.75;102661.72;4968881;28;20077;-86
2023/04/18 07:10:55;;;;;;;17.67;10.18;;;;;;;7.53;83.62;102658.31;4963173;28;20387;-86
2023/04/18 07:13:21;;;;;;;19.02;10.77;;;;;;;7.56;84.27;102653.22;4966223;28;20035;-85
2023/04/18 07:15:46;;;;;;;22.02;10.77;;;;;;;7.60;83.41;102656.69;4964378;28;20033;-84
2023/04/18 07:18:11;;;;;;;17.25;9.68;;;;;;;7.56;83.18;102658.38;4962426;28;20148;-84
2023/04/18 07:20:36;;;;;;;18.30;10.70;;;;;;;7.54;83.28;102650.59;4968745;28;20031;-85
2023/04/18 07:23:02;;;;;;;17.40;10.30;;;;;;;7.51;84.40;102650.53;4952840;28;20298;-85
2023/04/18 07:25:27;;;;;;;18.58;9.95;;;;;;;7.52;83.66;102657.44;4969862;28;20034;-85
2023/04/18 07:27:52;;;;;;;19.63;10.55;;;;;;;7.59;83.92;102660.13;4968447;28;20118;-85
2023/04/18 07:30:18;;;;;;;17.23;10.13;;;;;;;7.65;84.07;102665.38;4972419;28;20068;-85
2023/04/18 07:32:43;;;;;;;17.17;10.45;;;;;;;7.64;84.59;102663.66;4952359;28;20078;-85
2023/04/18 07:35:09;;;;;;;19.10;11.02;;;;;;;7.66;83.63;102661.97;4968785;28;20041;-85
2023/04/18 07:37:34;;;;;;;18.10;10.32;;;;;;;7.68;84.30;102652.53;4960942;28;20027;-85
2023/04/18 07:40:00;;;;;;;17.73;10.20;;;;;;;7.76;84.72;102666.47;4937664;28;20139;-85
2023/04/18 07:42:25;;;;;;;18.50;9.85;;;;;;;7.81;84.51;102663.09;4966538;28;20050;-85
2023/04/18 07:44:56;;;;;;;18.17;10.05;;;;;;;7.82;84.03;102667.44;4966399;28;20030;-84
2023/04/18 07:47:21;;;;;;;19.42;10.50;;;;;;;7.91;83.85;102674.47;4966902;28;20490;-86
2023/04/18 07:49:47;;;;;;;17.50;10.05;;;;;;;8.00;84.38;102673.72;4953495;28;20042;-85
2023/04/18 07:52:12;;;;;;;20.20;10.48;;;;;;;8.11;85.71;102673.06;4961745;28;20029;-85
2023/04/18 07:54:37;;;;;;;16.67;10.23;;;;;;;8.31;85.25;102674.28;4965245;28;20046;-84
2023/04/18 07:57:03;;;;;;;16.30;9.90;;;;;;;8.49;82.88;102668.50;4963043;28;20027;-85
2023/04/18 07:59:28;;;;;;;16.17;9.75;;;;;;;8.56;83.41;102670.31;4968638;28;20034;-85
2023/04/18 08:01:54;;;;;;;17.50;10.25;;;;;;;8.66;82.25;102676.50;4956985;28;20047;-85
2023/04/18 08:04:19;;;;;;;17.05;9.35;;;;;;;8.73;82.31;102663.66;4955014;28;20019;-86
2023/04/18 08:06:44;;;;;;;15.38;9.40;;;;;;;8.88;82.00;102672.47;4967878;28;20520;-85
2023/04/18 08:09:10;;;;;;;15.17;9.67;;;;;;;8.95;80.61;102679.44;4968655;28;20462;-85
2023/04/18 08:11:36;;;;;;;14.68;9.02;;;;;;;9.05;81.45;102679.59;4966227;28;20285;-86
2023/04/18 08:14:01;;;;;;;15.43;9.27;;;;;;;9.13;81.01;102677.09;4967728;28;20029;-86
2023/04/18 08:16:27;;;;;;;16.27;9.10;;;;;;;9.15;81.15;102679.69;4957648;28;20310;-85
2023/04/18 08:18:52;;;;;;;19.33;8.88;;;;;;;9.14;80.19;102671.09;4965405;28;20488;-86
2023/04/18 08:21:19;;;;;;;15.95;9.35;;;;;;;9.13;79.89;102669.34;4972959;28;20074;-85
2023/04/18 08:23:45;;;;;;;17.77;8.98;;;;;;;9.16;80.85;102681.41;4960618;28;20110;-86
2023/04/18 08:26:10;;;;;;;16.80;9.38;;;;;;;9.09;80.23;102680.47;4946012;29;20031;-86
2023/04/18 08:28:35;;;;;;;16.42;9.40;;;;;;;9.12;82.31;102683.13;4967968;28;20035;-86
2023/04/18 08:31:01;;;;;;;14.97;8.87;;;;;;;9.15;82.03;102683.13;4966142;28;20018;-86
2023/04/18 08:33:27;;;;;;;15.18;9.13;;;;;;;9.20;81.68;102680.63;4950567;28;20292;-86
2023/04/18 08:35:53;;;;;;;16.83;9.65;;;;;;;9.27;79.57;102679.84;4972488;28;20019;-87
2023/04/18 08:38:18;;;;;;;15.80;9.05;;;;;;;9.37;81.25;102687.72;4972792;28;20034;-86
2023/04/18 08:40:44;;;;;;;15.50;9.77;;;;;;;9.44;78.88;102673.97;4972438;28;20392;-85
2023/04/18 08:43:13;;;;;;;17.42;9.10;;;;;;;9.58;79.11;102687.06;4972089;28;20510;-85
2023/04/18 08:45:43;;;;;;;18.25;9.40;;;;;;;9.75;79.84;102674.28;4972666;28;20058;-85
2023/04/18 08:48:13;;;;;;;16.70;10.10;;;;;;;10.43;79.21;102667.09;4968543;28;20023;-86
2023/04/18 08:50:39;;;;;;;14.70;8.90;;;;;;;11.28;74.05;102672.63;4972642;28;20492;-85
2023/04/18 08:53:04;;;;;;;15.02;8.85;;;;;;;11.55;71.56;102666.63;4955339;28;20019;-85
2023/04/18 08:55:32;;;;;;;13.43;8.18;;;;;;;11.44;69.86;102666.63;4959787;28;20042;-85
2023/04/18 08:57:58;;;;;;;13.93;9.32;;;;;;;11.18;70.03;102665.69;4971670;28;20035;-87
2023/04/18 09:00:24;;;;;;;14.30;9.20;;;;;;;11.07;71.02;102667.38;4964908;28;20023;-85
2023/04/18 09:02:53;;;;;;;20.23;10.20;;;;;;;11.74;70.78;102655.41;4942561;28;20416;-86
2023/04/18 09:05:20;;;;;;;13.32;8.68;;;;;;;12.76;66.76;102659.63;4953893;28;20030;-86
2023/04/18 09:07:49;;;;;;;14.77;8.95;;;;;;;13.38;64.66;102641.97;4972436;28;20022;-86
2023/04/18 09:10:32;;;;;;;12.45;8.35;;;;;;;14.11;61.98;102648.34;4972205;28;20026;-86
2023/04/18 09:13:04;;;;;;;13.32;8.30;;;;;;;14.17;59.96;102648.28;4972084;28;20504;-86
2023/04/18 09:15:30;;;;;;;12.82;8.25;;;;;;;13.82;59.42;102646.84;4970609;28;20035;-86
2023/04/18 09:18:01;;;;;;;16.23;8.77;;;;;;;13.87;61.75;102654.63;4948437;28;20026;-86
2023/04/18 09:20:35;;;;;;;13.70;7.80;;;;;;;14.24;60.79;102650.81;4954960;28;20027;-86
2023/04/18 09:23:15;;;;;;;10.10;6.90;;;;;;;14.47;58.51;102647.97;4972273;28;20026;-86
2023/04/18 09:25:40;;;;;;;15.90;7.60;;;;;;;14.32;56.89;102649.88;4952647;28;20499;-86
2023/04/18 09:28:28;;;;;;;14.07;8.00;;;;;;;13.77;60.29;102663.41;4972468;28;20030;-86
2023/04/18 09:31:10;;;;;;;13.13;7.63;;;;;;;13.05;60.73;102658.63;4950384;28;20027;-86
2023/04/18 09:33:37;;;;;;;12.75;8.38;;;;;;;12.33;62.55;102662.34;4944674;28;20398;-86
2023/04/18 09:36:20;;;;;;;11.15;7.80;;;;;;;11.97;65.97;102670.16;4971940;28;20488;-86
2023/04/18 09:38:46;;;;;;;10.00;7.13;;;;;;;11.61;66.21;102665.75;4971815;28;20412;-86
2023/04/18 09:41:14;;;;;;;10.00;6.90;;;;;;;11.49;68.24;102664.91;4969202;28;20026;-85
2023/04/18 09:43:40;;;;;;;12.65;7.35;;;;;;;11.50;67.34;102660.56;4964109;28;20019;-85
2023/04/18 09:46:06;;;;;;;11.10;7.05;;;;;;;11.43;66.96;102659.69;4951541;29;20030;-86
2023/04/18 09:48:32;;;;;;;11.18;7.32;;;;;;;11.34;66.17;102656.19;4956910;28;20555;-85
2023/04/18 09:51:04;;;;;;;13.43;7.38;;;;;;;11.28;67.74;102656.19;4969061;28;20121;-85
2023/04/18 09:53:29;;;;;;;12.27;7.53;;;;;;;11.17;67.15;102648.38;4955322;28;20631;-86
2023/04/18 09:55:56;;;;;;;13.07;7.15;;;;;;;11.19;68.14;102651.00;4952621;28;20038;-86
2023/04/18 09:58:24;;;;;;;12.10;7.22;;;;;;;11.24;69.84;102665.72;4963815;28;20026;-86
2023/04/18 10:00:52;;;;;;;10.13;6.57;;;;;;;11.44;68.71;102661.44;4956818;28;20050;-86
2023/04/18 10:03:18;;;;;;;13.05;6.60;;;;;;;11.83;68.30;102657.16;4972088;28;20027;-86
2023/04/18 10:05:46;;;;;;;15.85;6.35;;;;;;;12.16;66.38;102651.06;4971627;28;20050;-86
2023/04/18 10:08:15;;;;;;;11.95;7.28;;;;;;;12.07;65.92;102661.50;4957298;28;20031;-86
2023/04/18 10:10:40;;;;;;;9.45;6.60;;;;;;;11.80;64.89;102664.97;4961553;28;20558;-86
2023/04/18 10:13:10;;;;;;;9.30;6.22;;;;;;;11.59;65.27;102675.31;4971243;28;20039;-86
2023/04/18 10:15:36;;;;;;;9.35;6.03;;;;;;;11.45;66.69;102675.28;4971457;28;20025;-86
2023/04/18 10:18:08;;;;;;;10.18;6.43;;;;;;;11.19;66.57;102664.81;4951172;29;20031;-86
2023/04/18 10:20:34;;;;;;;9.88;6.50;;;;;;;11.14;67.48;102670.84;4951208;29;20196;-86
2023/04/18 10:23:19;;;;;;;10.40;6.75;;;;;;;11.13;69.18;102662.19;4944509;28;20092;-86
2023/04/18 10:25:49;;;;;;;10.23;6.65;;;;;;;11.28;69.03;102651.00;4967962;28;20395;-86
2023/04/18 10:28:14;;;;;;;11.63;7.10;;;;;;;11.63;69.70;102656.25;4966461;28;20399;-86
2023/04/18 10:30:39;;;;;;;10.02;6.50;;;;;;;11.90;66.14;102661.50;4977352;28;20494;-86
2023/04/18 10:33:29;;;;;;;11.03;6.70;;;;;;;12.09;66.68;102662.34;4974932;28;20022;-86
2023/04/18 10:36:11;;;;;;;10.63;7.03;;;;;;;12.20;65.33;102669.28;4963260;28;20858;-86
2023/04/18 10:38:43;;;;;;;9.77;6.45;;;;;;;12.01;64.48;102656.31;4956850;28;20030;-86
2023/04/18 10:41:25;;;;;;;10.60;6.63;;;;;;;11.86;66.21;102664.97;4964749;28;20034;-86
2023/04/18 10:44:10;;;;;;;10.13;7.03;;;;;;;11.75;67.62;102656.28;4957835;28;20113;-87
2023/04/18 10:46:39;;;;;;;10.43;7.30;;;;;;;11.79;67.54;102658.03;4957387;28;20468;-87
2023/04/18 10:49:22;;;;;;;10.10;6.88;;;;;;;11.82;66.37;102666.69;4953219;28;20031;-86
2023/04/18 10:51:49;;;;;;;11.60;7.20;;;;;;;11.67;65.79;102658.84;4974877;28;20033;-86
2023/04/18 10:54:35;;;;;;;11.23;6.43;;;;;;;11.53;66.42;102664.91;4973918;28;20026;-86
2023/04/18 10:57:02;;;;;;;12.68;7.40;;;;;;;11.43;66.69;102651.03;4954821;28;20027;-86
2023/04/18 10:59:29;;;;;;;11.40;7.45;;;;;;;11.33;67.34;102651.88;4949813;29;20026;-86
2023/04/18 11:01:58;;;;;;;12.05;7.43;;;;;;;11.44;68.24;102655.38;4949338;28;20058;-86
2023/04/18 11:04:24;;;;;;;12.80;8.32;;;;;;;11.54;66.97;102645.84;4974602;28;20023;-86
2023/04/18 11:06:56;;;;;;;12.52;7.88;;;;;;;11.54;66.74;102659.69;4974302;28;20047;-87
2023/04/18 11:09:22;;;;;;;12.00;7.57;;;;;;;11.44;67.47;102653.63;4945526;29;20031;-87
2023/04/18 11:12:10;;;;;;;15.80;7.80;;;;;;;11.44;68.59;102650.19;4972837;28;20069;-87
2023/04/18 11:14:43;;;;;;;11.52;7.55;;;;;;;11.40;67.86;102656.22;4951670;28;20027;-86